sensor_id;sensor_type;location;lat;lon;timestamp;pressure;altitude;pressure_sealevel;temperature;humidity
45078;BME280;60508;42.622;25.416;2023-04-06T00:02:12;96356.44;;;6.62;71.68
45078;BME280;60508;42.622;25.416;2023-04-06T00:04:38;96350.47;;;6.60;72.08
45078;BME280;60508;42.622;25.416;2023-04-06T00:07:04;96348.03;;;6.58;72.10
45078;BME280;60508;42.622;25.416;2023-04-06T00:09:30;96348.44;;;6.62;72.08
45078;BME280;60508;42.622;25.416;2023-04-06T00:11:56;96348.28;;;6.57;72.30
45078;BME280;60508;42.622;25.416;2023-04-06T00:14:23;96347.59;;;6.62;72.32
45078;BME280;60508;42.622;25.416;2023-04-06T00:16:49;96341.22;;;6.63;72.32
45078;BME280;60508;42.622;25.416;2023-04-06T00:19:15;96328.22;;;6.54;72.95
45078;BME280;60508;42.622;25.416;2023-04-06T00:21:41;96327.59;;;6.52;72.90
45078;BME280;60508;42.622;25.416;2023-04-06T00:24:07;96333.41;;;6.49;72.78
45078;BME280;60508;42.622;25.416;2023-04-06T00:26:33;96327.25;;;6.49;72.29
45078;BME280;60508;42.622;25.416;2023-04-06T00:28:59;96323.66;;;6.43;72.96
45078;BME280;60508;42.622;25.416;2023-04-06T00:31:25;96315.81;;;6.30;73.26
45078;BME280;60508;42.622;25.416;2023-04-06T00:33:51;96318.00;;;6.21;73.63
45078;BME280;60508;42.622;25.416;2023-04-06T00:36:17;96318.34;;;6.13;73.90
45078;BME280;60508;42.622;25.416;2023-04-06T00:38:43;96318.50;;;5.81;74.75
45078;BME280;60508;42.622;25.416;2023-04-06T00:41:11;96320.00;;;5.77;75.62
45078;BME280;60508;42.622;25.416;2023-04-06T00:43:37;96309.06;;;6.15;74.03
45078;BME280;60508;42.622;25.416;2023-04-06T00:46:03;96315.31;;;5.91;74.63
45078;BME280;60508;42.622;25.416;2023-04-06T00:48:29;96311.72;;;5.48;76.09
45078;BME280;60508;42.622;25.416;2023-04-06T00:50:57;96313.28;;;5.56;76.58
45078;BME280;60508;42.622;25.416;2023-04-06T00:53:24;96305.00;;;5.64;76.26
45078;BME280;60508;42.622;25.416;2023-04-06T00:55:51;96309.88;;;5.67;76.59
45078;BME280;60508;42.622;25.416;2023-04-06T00:58:18;96302.19;;;5.59;77.12
45078;BME280;60508;42.622;25.416;2023-04-06T01:00:49;96295.78;;;5.60;76.74
45078;BME280;60508;42.622;25.416;2023-04-06T01:03:19;96299.78;;;5.51;76.90
45078;BME280;60508;42.622;25.416;2023-04-06T01:05:46;96299.22;;;5.48;77.03
45078;BME280;60508;42.622;25.416;2023-04-06T01:08:22;96298.59;;;5.65;76.36
45078;BME280;60508;42.622;25.416;2023-04-06T01:10:53;96300.00;;;5.67;75.49
45078;BME280;60508;42.622;25.416;2023-04-06T01:13:24;96308.75;;;5.56;76.25
45078;BME280;60508;42.622;25.416;2023-04-06T01:15:53;96300.59;;;5.33;76.71
45078;BME280;60508;42.622;25.416;2023-04-06T01:18:27;96295.72;;;5.29;77.69
45078;BME280;60508;42.622;25.416;2023-04-06T01:21:03;96289.59;;;5.29;77.51
45078;BME280;60508;42.622;25.416;2023-04-06T01:23:29;96288.69;;;4.98;77.38
45078;BME280;60508;42.622;25.416;2023-04-06T01:25:55;96288.53;;;5.11;77.87
45078;BME280;60508;42.622;25.416;2023-04-06T01:28:22;96281.69;;;5.22;77.70
45078;BME280;60508;42.622;25.416;2023-04-06T01:31:14;96267.69;;;5.45;76.23
45078;BME280;60508;42.622;25.416;2023-04-06T01:33:47;96270.38;;;5.27;76.13
45078;BME280;60508;42.622;25.416;2023-04-06T01:36:17;96276.22;;;5.17;76.64
45078;BME280;60508;42.622;25.416;2023-04-06T01:38:46;96281.66;;;5.04;77.08
45078;BME280;60508;42.622;25.416;2023-04-06T01:41:13;96274.50;;;5.04;76.46
45078;BME280;60508;42.622;25.416;2023-04-06T01:43:52;96270.25;;;4.97;76.75
45078;BME280;60508;42.622;25.416;2023-04-06T01:46:23;96273.50;;;4.99;76.58
45078;BME280;60508;42.622;25.416;2023-04-06T01:48:49;96269.53;;;5.08;76.83
45078;BME280;60508;42.622;25.416;2023-04-06T01:51:36;96262.75;;;5.12;76.56
45078;BME280;60508;42.622;25.416;2023-04-06T01:54:22;96248.22;;;5.08;76.04
45078;BME280;60508;42.622;25.416;2023-04-06T01:57:09;96258.81;;;5.15;76.21
45078;BME280;60508;42.622;25.416;2023-04-06T02:00:02;96268.72;;;5.26;75.98
45078;BME280;60508;42.622;25.416;2023-04-06T02:02:43;96267.47;;;5.28;75.40
45078;BME280;60508;42.622;25.416;2023-04-06T02:05:16;96280.94;;;5.34;75.40
45078;BME280;60508;42.622;25.416;2023-04-06T02:07:44;96278.34;;;5.27;75.48
45078;BME280;60508;42.622;25.416;2023-04-06T02:10:13;96270.38;;;5.27;75.74
45078;BME280;60508;42.622;25.416;2023-04-06T02:12:40;96272.66;;;5.23;75.32
45078;BME280;60508;42.622;25.416;2023-04-06T02:15:10;96267.31;;;5.60;73.96
45078;BME280;60508;42.622;25.416;2023-04-06T02:17:39;96273.19;;;5.81;72.19
45078;BME280;60508;42.622;25.416;2023-04-06T02:20:06;96269.66;;;5.69;72.44
45078;BME280;60508;42.622;25.416;2023-04-06T02:22:32;96278.63;;;5.56;73.78
45078;BME280;60508;42.622;25.416;2023-04-06T02:24:58;96278.63;;;5.56;73.70
45078;BME280;60508;42.622;25.416;2023-04-06T02:27:25;96278.38;;;5.76;72.41
45078;BME280;60508;42.622;25.416;2023-04-06T02:29:51;96278.66;;;5.86;72.28
45078;BME280;60508;42.622;25.416;2023-04-06T02:32:19;96275.31;;;5.91;72.11
45078;BME280;60508;42.622;25.416;2023-04-06T02:34:46;96281.69;;;5.90;71.76
45078;BME280;60508;42.622;25.416;2023-04-06T02:37:13;96287.34;;;5.63;72.46
45078;BME280;60508;42.622;25.416;2023-04-06T02:39:40;96288.84;;;5.59;72.63
45078;BME280;60508;42.622;25.416;2023-04-06T02:42:08;96286.78;;;5.61;72.75
45078;BME280;60508;42.622;25.416;2023-04-06T02:44:34;96275.38;;;5.54;73.27
45078;BME280;60508;42.622;25.416;2023-04-06T02:47:01;96273.91;;;5.58;73.51
45078;BME280;60508;42.622;25.416;2023-04-06T02:49:27;96283.00;;;5.69;73.59
45078;BME280;60508;42.622;25.416;2023-04-06T02:51:56;96275.81;;;5.69;73.37
45078;BME280;60508;42.622;25.416;2023-04-06T02:54:26;96284.09;;;5.61;73.88
45078;BME280;60508;42.622;25.416;2023-04-06T02:56:52;96287.56;;;5.61;74.00
45078;BME280;60508;42.622;25.416;2023-04-06T02:59:19;96280.63;;;5.60;73.64
45078;BME280;60508;42.622;25.416;2023-04-06T03:01:55;96288.69;;;5.54;73.96
45078;BME280;60508;42.622;25.416;2023-04-06T03:04:21;96278.19;;;5.40;74.13
45078;BME280;60508;42.622;25.416;2023-04-06T03:06:52;96291.13;;;5.55;73.94
45078;BME280;60508;42.622;25.416;2023-04-06T03:09:29;96290.03;;;5.63;72.54
45078;BME280;60508;42.622;25.416;2023-04-06T03:11:55;96291.00;;;5.69;72.57
45078;BME280;60508;42.622;25.416;2023-04-06T03:14:22;96290.25;;;5.61;72.59
45078;BME280;60508;42.622;25.416;2023-04-06T03:16:49;96287.81;;;5.41;73.85
45078;BME280;60508;42.622;25.416;2023-04-06T03:19:19;96290.84;;;5.45;74.04
45078;BME280;60508;42.622;25.416;2023-04-06T03:21:45;96295.97;;;5.46;73.55
45078;BME280;60508;42.622;25.416;2023-04-06T03:24:13;96287.59;;;5.43;73.67
45078;BME280;60508;42.622;25.416;2023-04-06T03:26:39;96290.28;;;5.43;73.77
45078;BME280;60508;42.622;25.416;2023-04-06T03:29:07;96288.78;;;5.47;73.65
45078;BME280;60508;42.622;25.416;2023-04-06T03:31:33;96289.75;;;5.53;73.62
45078;BME280;60508;42.622;25.416;2023-04-06T03:34:05;96288.94;;;5.82;71.78
45078;BME280;60508;42.622;25.416;2023-04-06T03:36:35;96290.63;;;5.95;70.51
45078;BME280;60508;42.622;25.416;2023-04-06T03:39:03;96292.28;;;5.78;70.68
45078;BME280;60508;42.622;25.416;2023-04-06T03:41:32;96287.63;;;5.73;70.75
45078;BME280;60508;42.622;25.416;2023-04-06T03:44:12;96295.25;;;5.88;69.96
45078;BME280;60508;42.622;25.416;2023-04-06T03:46:40;96291.75;;;5.88;68.98
45078;BME280;60508;42.622;25.416;2023-04-06T03:49:07;96298.59;;;5.83;68.26
45078;BME280;60508;42.622;25.416;2023-04-06T03:51:33;96289.41;;;5.79;68.51
45078;BME280;60508;42.622;25.416;2023-04-06T03:53:59;96287.03;;;5.71;69.80
45078;BME280;60508;42.622;25.416;2023-04-06T03:56:26;96297.34;;;5.67;70.54
45078;BME280;60508;42.622;25.416;2023-04-06T03:58:53;96299.44;;;5.65;70.53
45078;BME280;60508;42.622;25.416;2023-04-06T04:01:20;96292.78;;;5.56;71.23
45078;BME280;60508;42.622;25.416;2023-04-06T04:03:46;96300.09;;;5.61;71.73
45078;BME280;60508;42.622;25.416;2023-04-06T04:06:13;96295.50;;;5.49;72.17
45078;BME280;60508;42.622;25.416;2023-04-06T04:08:40;96289.44;;;5.42;72.51
45078;BME280;60508;42.622;25.416;2023-04-06T04:11:07;96291.06;;;5.43;73.21
45078;BME280;60508;42.622;25.416;2023-04-06T04:13:34;96294.09;;;5.65;71.96
45078;BME280;60508;42.622;25.416;2023-04-06T04:16:03;96298.53;;;5.72;71.28
45078;BME280;60508;42.622;25.416;2023-04-06T04:18:29;96291.44;;;5.65;70.69
45078;BME280;60508;42.622;25.416;2023-04-06T04:20:57;96288.63;;;5.60;71.05
45078;BME280;60508;42.622;25.416;2023-04-06T04:23:23;96293.78;;;5.55;71.13
45078;BME280;60508;42.622;25.416;2023-04-06T04:25:50;96287.44;;;5.56;71.32
45078;BME280;60508;42.622;25.416;2023-04-06T04:28:17;96295.44;;;5.56;70.97
45078;BME280;60508;42.622;25.416;2023-04-06T04:30:44;96301.44;;;5.52;71.48
45078;BME280;60508;42.622;25.416;2023-04-06T04:33:11;96300.41;;;5.53;71.06
45078;BME280;60508;42.622;25.416;2023-04-06T04:35:37;96301.00;;;5.55;71.50
45078;BME280;60508;42.622;25.416;2023-04-06T04:38:04;96294.41;;;5.57;71.09
45078;BME280;60508;42.622;25.416;2023-04-06T04:40:32;96302.41;;;5.57;71.45
45078;BME280;60508;42.622;25.416;2023-04-06T04:43:06;96291.97;;;5.56;71.21
45078;BME280;60508;42.622;25.416;2023-04-06T04:45:34;96298.00;;;5.63;71.12
45078;BME280;60508;42.622;25.416;2023-04-06T04:48:19;96287.31;;;5.51;70.95
45078;BME280;60508;42.622;25.416;2023-04-06T04:50:51;96299.78;;;5.51;71.78
45078;BME280;60508;42.622;25.416;2023-04-06T04:53:21;96296.47;;;5.55;70.86
45078;BME280;60508;42.622;25.416;2023-04-06T04:55:47;96287.88;;;5.72;68.76
45078;BME280;60508;42.622;25.416;2023-04-06T04:58:14;96303.25;;;5.70;69.24
45078;BME280;60508;42.622;25.416;2023-04-06T05:00:51;96293.34;;;5.77;69.21
45078;BME280;60508;42.622;25.416;2023-04-06T05:03:22;96307.16;;;5.85;68.88
45078;BME280;60508;42.622;25.416;2023-04-06T05:05:55;96301.53;;;5.94;68.64
45078;BME280;60508;42.622;25.416;2023-04-06T05:08:25;96309.47;;;6.00;68.18
45078;BME280;60508;42.622;25.416;2023-04-06T05:10:51;96304.63;;;6.09;67.33
45078;BME280;60508;42.622;25.416;2023-04-06T05:13:19;96302.97;;;6.27;67.01
45078;BME280;60508;42.622;25.416;2023-04-06T05:15:47;96294.47;;;6.30;66.30
45078;BME280;60508;42.622;25.416;2023-04-06T05:18:26;96303.44;;;6.35;66.50
45078;BME280;60508;42.622;25.416;2023-04-06T05:20:53;96300.53;;;6.37;66.38
45078;BME280;60508;42.622;25.416;2023-04-06T05:23:24;96292.53;;;6.37;66.82
45078;BME280;60508;42.622;25.416;2023-04-06T05:25:51;96299.75;;;6.48;66.21
45078;BME280;60508;42.622;25.416;2023-04-06T05:28:20;96307.31;;;6.51;66.21
45078;BME280;60508;42.622;25.416;2023-04-06T05:31:01;96297.00;;;6.67;65.52
45078;BME280;60508;42.622;25.416;2023-04-06T05:33:33;96296.19;;;6.66;65.56
45078;BME280;60508;42.622;25.416;2023-04-06T05:36:04;96294.94;;;6.69;64.71
45078;BME280;60508;42.622;25.416;2023-04-06T05:38:34;96296.34;;;6.83;63.52
45078;BME280;60508;42.622;25.416;2023-04-06T05:41:09;96300.38;;;6.74;63.82
45078;BME280;60508;42.622;25.416;2023-04-06T05:43:36;96297.81;;;6.67;63.99
45078;BME280;60508;42.622;25.416;2023-04-06T05:46:02;96293.53;;;6.78;63.37
45078;BME280;60508;42.622;25.416;2023-04-06T05:48:28;96282.50;;;6.74;63.08
45078;BME280;60508;42.622;25.416;2023-04-06T05:50:54;96281.06;;;6.48;64.43
45078;BME280;60508;42.622;25.416;2023-04-06T05:53:27;96276.81;;;6.59;64.56
45078;BME280;60508;42.622;25.416;2023-04-06T05:56:00;96284.25;;;6.69;64.18
45078;BME280;60508;42.622;25.416;2023-04-06T05:58:27;96277.03;;;6.69;64.24
45078;BME280;60508;42.622;25.416;2023-04-06T06:00:58;96274.13;;;6.71;64.89
45078;BME280;60508;42.622;25.416;2023-04-06T06:03:25;96273.09;;;6.84;64.23
45078;BME280;60508;42.622;25.416;2023-04-06T06:05:58;96266.97;;;6.83;64.05
45078;BME280;60508;42.622;25.416;2023-04-06T06:08:29;96264.88;;;6.73;64.10
45078;BME280;60508;42.622;25.416;2023-04-06T06:10:57;96263.69;;;6.81;65.16
45078;BME280;60508;42.622;25.416;2023-04-06T06:13:24;96257.88;;;7.08;64.67
45078;BME280;60508;42.622;25.416;2023-04-06T06:15:52;96258.13;;;7.06;65.71
45078;BME280;60508;42.622;25.416;2023-04-06T06:18:19;96254.88;;;6.92;65.89
45078;BME280;60508;42.622;25.416;2023-04-06T06:20:48;96263.34;;;6.89;65.96
45078;BME280;60508;42.622;25.416;2023-04-06T06:23:16;96260.31;;;6.86;66.42
45078;BME280;60508;42.622;25.416;2023-04-06T06:25:42;96258.47;;;6.98;67.63
45078;BME280;60508;42.622;25.416;2023-04-06T06:28:09;96264.38;;;7.12;67.65
45078;BME280;60508;42.622;25.416;2023-04-06T06:30:36;96260.81;;;6.94;66.32
45078;BME280;60508;42.622;25.416;2023-04-06T06:33:03;96258.13;;;6.83;66.33
45078;BME280;60508;42.622;25.416;2023-04-06T06:35:30;96257.66;;;6.98;65.26
45078;BME280;60508;42.622;25.416;2023-04-06T06:37:57;96264.50;;;7.05;66.34
45078;BME280;60508;42.622;25.416;2023-04-06T06:40:27;96260.69;;;7.01;65.47
45078;BME280;60508;42.622;25.416;2023-04-06T06:42:54;96263.78;;;7.34;64.50
45078;BME280;60508;42.622;25.416;2023-04-06T06:45:28;96262.94;;;7.45;63.82
45078;BME280;60508;42.622;25.416;2023-04-06T06:47:55;96261.63;;;7.47;62.43
45078;BME280;60508;42.622;25.416;2023-04-06T06:50:21;96258.94;;;7.59;62.95
45078;BME280;60508;42.622;25.416;2023-04-06T06:52:48;96258.47;;;7.62;62.42
45078;BME280;60508;42.622;25.416;2023-04-06T06:55:15;96256.88;;;7.78;59.35
45078;BME280;60508;42.622;25.416;2023-04-06T06:57:41;96258.16;;;7.88;59.13
45078;BME280;60508;42.622;25.416;2023-04-06T07:00:09;96265.91;;;8.01;58.63
45078;BME280;60508;42.622;25.416;2023-04-06T07:02:37;96268.19;;;8.09;56.96
45078;BME280;60508;42.622;25.416;2023-04-06T07:05:04;96265.97;;;8.35;57.49
45078;BME280;60508;42.622;25.416;2023-04-06T07:07:33;96266.31;;;8.55;59.45
45078;BME280;60508;42.622;25.416;2023-04-06T07:10:00;96266.56;;;8.71;59.79
45078;BME280;60508;42.622;25.416;2023-04-06T07:12:27;96258.13;;;8.79;55.68
45078;BME280;60508;42.622;25.416;2023-04-06T07:14:54;96249.59;;;8.82;54.77
45078;BME280;60508;42.622;25.416;2023-04-06T07:17:20;96242.94;;;8.68;55.07
45078;BME280;60508;42.622;25.416;2023-04-06T07:19:46;96259.91;;;8.73;55.74
45078;BME280;60508;42.622;25.416;2023-04-06T07:22:12;96254.41;;;8.80;52.05
45078;BME280;60508;42.622;25.416;2023-04-06T07:24:38;96259.34;;;8.88;51.94
45078;BME280;60508;42.622;25.416;2023-04-06T07:27:04;96260.53;;;8.98;54.15
45078;BME280;60508;42.622;25.416;2023-04-06T07:29:30;96252.53;;;9.20;54.34
45078;BME280;60508;42.622;25.416;2023-04-06T07:31:57;96256.19;;;9.13;51.20
45078;BME280;60508;42.622;25.416;2023-04-06T07:34:23;96262.03;;;9.27;49.55
45078;BME280;60508;42.622;25.416;2023-04-06T07:36:49;96253.56;;;9.36;50.56
45078;BME280;60508;42.622;25.416;2023-04-06T07:39:15;96261.97;;;9.66;48.07
45078;BME280;60508;42.622;25.416;2023-04-06T07:41:41;96260.28;;;9.60;47.07
45078;BME280;60508;42.622;25.416;2023-04-06T07:44:07;96254.28;;;9.75;48.14
45078;BME280;60508;42.622;25.416;2023-04-06T07:46:33;96257.56;;;9.77;48.57
45078;BME280;60508;42.622;25.416;2023-04-06T07:49:01;96256.19;;;10.02;46.22
45078;BME280;60508;42.622;25.416;2023-04-06T07:51:29;96258.69;;;9.86;46.43
45078;BME280;60508;42.622;25.416;2023-04-06T07:53:56;96260.19;;;9.99;46.68
45078;BME280;60508;42.622;25.416;2023-04-06T07:56:22;96259.09;;;9.73;48.02
45078;BME280;60508;42.622;25.416;2023-04-06T07:58:49;96250.78;;;10.24;48.17
45078;BME280;60508;42.622;25.416;2023-04-06T08:01:14;96252.44;;;10.57;48.03
45078;BME280;60508;42.622;25.416;2023-04-06T08:03:41;96254.53;;;10.83;47.07
45078;BME280;60508;42.622;25.416;2023-04-06T08:06:07;96256.72;;;11.33;46.11
45078;BME280;60508;42.622;25.416;2023-04-06T08:08:33;96260.09;;;11.66;44.82
45078;BME280;60508;42.622;25.416;2023-04-06T08:10:59;96261.59;;;12.00;43.12
45078;BME280;60508;42.622;25.416;2023-04-06T08:13:25;96258.69;;;12.22;42.57
45078;BME280;60508;42.622;25.416;2023-04-06T08:15:51;96253.56;;;12.26;43.67
45078;BME280;60508;42.622;25.416;2023-04-06T08:18:18;96259.25;;;12.24;41.04
45078;BME280;60508;42.622;25.416;2023-04-06T08:20:44;96247.97;;;11.64;40.63
45078;BME280;60508;42.622;25.416;2023-04-06T08:23:10;96254.84;;;11.34;41.55
45078;BME280;60508;42.622;25.416;2023-04-06T08:25:37;96254.59;;;11.36;42.14
45078;BME280;60508;42.622;25.416;2023-04-06T08:28:03;96252.94;;;11.29;42.71
45078;BME280;60508;42.622;25.416;2023-04-06T08:30:29;96229.53;;;11.93;42.62
45078;BME280;60508;42.622;25.416;2023-04-06T08:32:55;96254.66;;;12.40;41.19
45078;BME280;60508;42.622;25.416;2023-04-06T08:35:21;96248.47;;;12.96;40.45
45078;BME280;60508;42.622;25.416;2023-04-06T08:37:47;96253.31;;;12.99;39.96
45078;BME280;60508;42.622;25.416;2023-04-06T08:40:14;96261.38;;;13.35;39.03
45078;BME280;60508;42.622;25.416;2023-04-06T08:42:44;96252.19;;;13.31;38.63
45078;BME280;60508;42.622;25.416;2023-04-06T08:45:16;96247.13;;;12.83;39.65
45078;BME280;60508;42.622;25.416;2023-04-06T08:47:42;96252.78;;;12.97;38.46
45078;BME280;60508;42.622;25.416;2023-04-06T08:50:10;96247.38;;;13.07;38.40
45078;BME280;60508;42.622;25.416;2023-04-06T08:52:37;96242.00;;;12.82;39.38
45078;BME280;60508;42.622;25.416;2023-04-06T08:55:04;96244.44;;;12.47;39.05
45078;BME280;60508;42.622;25.416;2023-04-06T08:57:31;96239.03;;;12.37;38.55
45078;BME280;60508;42.622;25.416;2023-04-06T08:59:57;96246.50;;;11.94;39.02
45078;BME280;60508;42.622;25.416;2023-04-06T09:02:26;96251.63;;;12.00;39.73
45078;BME280;60508;42.622;25.416;2023-04-06T09:04:53;96248.75;;;12.64;38.73
45078;BME280;60508;42.622;25.416;2023-04-06T09:07:20;96241.16;;;13.32;38.21
45078;BME280;60508;42.622;25.416;2023-04-06T09:09:47;96231.31;;;13.73;36.42
45078;BME280;60508;42.622;25.416;2023-04-06T09:12:26;96232.44;;;13.51;37.20
45078;BME280;60508;42.622;25.416;2023-04-06T09:14:53;96236.00;;;13.21;37.97
45078;BME280;60508;42.622;25.416;2023-04-06T09:17:21;96240.63;;;13.15;37.20
45078;BME280;60508;42.622;25.416;2023-04-06T09:19:47;96233.09;;;12.91;37.47
45078;BME280;60508;42.622;25.416;2023-04-06T09:22:14;96234.19;;;12.54;38.76
45078;BME280;60508;42.622;25.416;2023-04-06T09:24:45;96226.09;;;12.23;38.59
45078;BME280;60508;42.622;25.416;2023-04-06T09:27:12;96235.00;;;12.24;38.75
45078;BME280;60508;42.622;25.416;2023-04-06T09:29:40;96238.50;;;12.60;39.18
45078;BME280;60508;42.622;25.416;2023-04-06T09:32:07;96227.97;;;12.95;38.43
45078;BME280;60508;42.622;25.416;2023-04-06T09:34:39;96223.31;;;13.31;38.33
45078;BME280;60508;42.622;25.416;2023-04-06T09:37:16;96223.56;;;13.50;37.47
45078;BME280;60508;42.622;25.416;2023-04-06T09:39:44;96218.16;;;13.50;37.77
45078;BME280;60508;42.622;25.416;2023-04-06T09:42:26;96216.09;;;13.87;36.60
45078;BME280;60508;42.622;25.416;2023-04-06T09:44:55;96214.53;;;14.20;36.92
45078;BME280;60508;42.622;25.416;2023-04-06T09:47:22;96216.78;;;14.13;36.87
45078;BME280;60508;42.622;25.416;2023-04-06T09:49:59;96216.28;;;14.01;37.34
45078;BME280;60508;42.622;25.416;2023-04-06T09:52:31;96215.91;;;13.73;37.58
45078;BME280;60508;42.622;25.416;2023-04-06T09:55:02;96223.09;;;13.12;37.05
45078;BME280;60508;42.622;25.416;2023-04-06T09:57:43;96218.28;;;12.84;38.49
45078;BME280;60508;42.622;25.416;2023-04-06T10:00:13;96212.59;;;13.06;38.38
45078;BME280;60508;42.622;25.416;2023-04-06T10:02:51;96223.63;;;13.04;37.92
45078;BME280;60508;42.622;25.416;2023-04-06T10:05:35;96222.50;;;13.31;37.74
45078;BME280;60508;42.622;25.416;2023-04-06T10:08:10;96213.66;;;13.85;36.97
45078;BME280;60508;42.622;25.416;2023-04-06T10:10:37;96214.38;;;14.01;36.01
45078;BME280;60508;42.622;25.416;2023-04-06T10:13:04;96218.22;;;13.90;35.61
45078;BME280;60508;42.622;25.416;2023-04-06T10:15:31;96214.28;;;13.72;36.40
45078;BME280;60508;42.622;25.416;2023-04-06T10:18:01;96217.00;;;13.67;36.35
45078;BME280;60508;42.622;25.416;2023-04-06T10:25:36;96214.38;;;14.06;35.52
45078;BME280;60508;42.622;25.416;2023-04-06T10:28:08;96210.13;;;13.95;35.59
45078;BME280;60508;42.622;25.416;2023-04-06T10:30:35;96204.91;;;14.49;35.59
45078;BME280;60508;42.622;25.416;2023-04-06T10:33:17;96208.59;;;15.46;34.55
45078;BME280;60508;42.622;25.416;2023-04-06T10:35:44;96202.25;;;15.99;33.94
45078;BME280;60508;42.622;25.416;2023-04-06T10:38:10;96202.59;;;15.25;33.30
45078;BME280;60508;42.622;25.416;2023-04-06T10:40:40;96198.75;;;14.38;33.69
45078;BME280;60508;42.622;25.416;2023-04-06T10:43:11;96203.09;;;13.94;34.72
45078;BME280;60508;42.622;25.416;2023-04-06T10:45:38;96202.34;;;13.83;35.72
45078;BME280;60508;42.622;25.416;2023-04-06T10:50:43;96195.59;;;14.94;34.44
45078;BME280;60508;42.622;25.416;2023-04-06T10:53:10;96190.00;;;15.39;35.54
45078;BME280;60508;42.622;25.416;2023-04-06T10:55:39;96184.34;;;14.82;35.03
45078;BME280;60508;42.622;25.416;2023-04-06T10:58:07;96179.72;;;14.53;35.85
45078;BME280;60508;42.622;25.416;2023-04-06T11:00:35;96190.16;;;13.36;37.03
45078;BME280;60508;42.622;25.416;2023-04-06T11:03:01;96185.88;;;13.14;38.95
45078;BME280;60508;42.622;25.416;2023-04-06T11:05:27;96181.22;;;13.30;38.75
45078;BME280;60508;42.622;25.416;2023-04-06T11:07:54;96184.88;;;13.65;38.08
45078;BME280;60508;42.622;25.416;2023-04-06T11:10:21;96185.78;;;13.40;37.33
45078;BME280;60508;42.622;25.416;2023-04-06T11:12:56;96186.94;;;13.19;38.12
45078;BME280;60508;42.622;25.416;2023-04-06T11:15:22;96185.59;;;13.16;38.44
45078;BME280;60508;42.622;25.416;2023-04-06T11:17:48;96189.69;;;12.93;38.39
45078;BME280;60508;42.622;25.416;2023-04-06T11:20:15;96164.63;;;12.87;38.42
45078;BME280;60508;42.622;25.416;2023-04-06T11:22:48;96171.59;;;12.93;37.91
45078;BME280;60508;42.622;25.416;2023-04-06T11:25:15;96181.31;;;12.94;38.25
45078;BME280;60508;42.622;25.416;2023-04-06T11:27:43;96184.81;;;12.95;37.76
45078;BME280;60508;42.622;25.416;2023-04-06T11:30:09;96183.50;;;12.92;38.58
45078;BME280;60508;42.622;25.416;2023-04-06T11:32:40;96174.34;;;12.63;38.28
45078;BME280;60508;42.622;25.416;2023-04-06T11:35:19;96173.28;;;12.48;38.82
45078;BME280;60508;42.622;25.416;2023-04-06T11:37:45;96172.75;;;12.51;39.63
45078;BME280;60508;42.622;25.416;2023-04-06T11:40:11;96174.63;;;12.61;38.50
45078;BME280;60508;42.622;25.416;2023-04-06T11:42:38;96176.00;;;12.64;39.14
45078;BME280;60508;42.622;25.416;2023-04-06T11:45:04;96167.88;;;12.84;38.43
45078;BME280;60508;42.622;25.416;2023-04-06T11:47:37;96165.88;;;13.36;37.58
45078;BME280;60508;42.622;25.416;2023-04-06T11:52:34;96162.19;;;14.11;36.55
45078;BME280;60508;42.622;25.416;2023-04-06T11:55:11;96164.03;;;14.85;33.86
45078;BME280;60508;42.622;25.416;2023-04-06T11:57:38;96158.13;;;15.55;33.08
45078;BME280;60508;42.622;25.416;2023-04-06T12:00:06;96173.09;;;15.47;33.65
45078;BME280;60508;42.622;25.416;2023-04-06T12:02:32;96160.25;;;14.86;33.53
45078;BME280;60508;42.622;25.416;2023-04-06T12:04:58;96162.78;;;14.42;35.06
45078;BME280;60508;42.622;25.416;2023-04-06T12:07:25;96164.13;;;14.40;34.88
45078;BME280;60508;42.622;25.416;2023-04-06T12:09:51;96167.06;;;14.09;34.49
45078;BME280;60508;42.622;25.416;2023-04-06T12:12:19;96172.34;;;13.85;36.34
45078;BME280;60508;42.622;25.416;2023-04-06T12:14:45;96171.47;;;13.45;36.65
45078;BME280;60508;42.622;25.416;2023-04-06T12:17:11;96172.38;;;13.09;36.41
45078;BME280;60508;42.622;25.416;2023-04-06T12:19:38;96176.25;;;12.77;36.91
45078;BME280;60508;42.622;25.416;2023-04-06T12:22:03;96179.78;;;12.47;37.54
45078;BME280;60508;42.622;25.416;2023-04-06T12:24:29;96171.44;;;12.23;37.20
45078;BME280;60508;42.622;25.416;2023-04-06T12:26:56;96169.28;;;12.15;37.78
45078;BME280;60508;42.622;25.416;2023-04-06T12:29:24;96169.00;;;12.16;37.03
45078;BME280;60508;42.622;25.416;2023-04-06T12:31:50;96167.66;;;12.09;37.75
45078;BME280;60508;42.622;25.416;2023-04-06T12:34:17;96168.97;;;12.06;38.84
45078;BME280;60508;42.622;25.416;2023-04-06T12:36:43;96170.88;;;12.05;38.20
45078;BME280;60508;42.622;25.416;2023-04-06T12:39:09;96170.00;;;11.84;39.41
45078;BME280;60508;42.622;25.416;2023-04-06T12:41:37;96174.00;;;11.82;38.10
45078;BME280;60508;42.622;25.416;2023-04-06T12:44:06;96166.78;;;11.82;38.60
45078;BME280;60508;42.622;25.416;2023-04-06T12:46:32;96165.94;;;11.82;38.24
45078;BME280;60508;42.622;25.416;2023-04-06T12:48:59;96162.13;;;11.67;38.55
45078;BME280;60508;42.622;25.416;2023-04-06T12:51:28;96162.69;;;11.64;38.88
45078;BME280;60508;42.622;25.416;2023-04-06T12:53:54;96158.09;;;11.60;38.99
45078;BME280;60508;42.622;25.416;2023-04-06T12:56:21;96161.31;;;11.57;39.15
45078;BME280;60508;42.622;25.416;2023-04-06T12:58:49;96148.41;;;11.48;39.00
45078;BME280;60508;42.622;25.416;2023-04-06T13:01:16;96153.47;;;11.45;39.72
45078;BME280;60508;42.622;25.416;2023-04-06T13:03:42;96155.34;;;11.44;38.79
45078;BME280;60508;42.622;25.416;2023-04-06T13:06:09;96146.25;;;11.50;39.40
45078;BME280;60508;42.622;25.416;2023-04-06T13:08:35;96142.41;;;11.31;39.20
45078;BME280;60508;42.622;25.416;2023-04-06T13:11:03;96142.09;;;11.22;40.38
45078;BME280;60508;42.622;25.416;2023-04-06T13:13:30;96141.63;;;11.30;40.76